sensor_id;sensor_type;location;lat;lon;timestamp;P1;durP1;ratioP1;P2;durP2;ratioP2
20639;SDS011;10479;53.524;9.846;2023-03-01T00:01:05;13.55;;;5.13;;
20639;SDS011;10479;53.524;9.846;2023-03-01T00:03:32;11.85;;;5.07;;
20639;SDS011;10479;53.524;9.846;2023-03-01T00:05:57;12.00;;;5.03;;
20639;SDS011;10479;53.524;9.846;2023-03-01T00:08:23;12.25;;;4.68;;
20639;SDS011;10479;53.524;9.846;2023-03-01T00:10:49;10.88;;;4.75;;
20639;SDS011;10479;53.524;9.846;2023-03-01T00:13:14;12.52;;;5.43;;
20639;SDS011;10479;53.524;9.846;2023-03-01T00:15:40;12.27;;;4.65;;
20639;SDS011;10479;53.524;9.846;2023-03-01T00:18:06;10.23;;;4.50;;
20639;SDS011;10479;53.524;9.846;2023-03-01T00:20:33;10.80;;;4.68;;
20639;SDS011;10479;53.524;9.846;2023-03-01T00:22:59;10.52;;;4.57;;
20639;SDS011;10479;53.524;9.846;2023-03-01T00:25:24;11.38;;;4.90;;
20639;SDS011;10479;53.524;9.846;2023-03-01T00:27:50;9.95;;;4.70;;
20639;SDS011;10479;53.524;9.846;2023-03-01T00:30:15;11.85;;;5.03;;
20639;SDS011;10479;53.524;9.846;2023-03-01T00:32:41;15.55;;;5.25;;
20639;SDS011;10479;53.524;9.846;2023-03-01T00:35:06;11.65;;;4.55;;
20639;SDS011;10479;53.524;9.846;2023-03-01T00:37:32;13.20;;;5.18;;
20639;SDS011;10479;53.524;9.846;2023-03-01T00:39:57;11.32;;;4.38;;
20639;SDS011;10479;53.524;9.846;2023-03-01T00:42:23;10.18;;;5.05;;
20639;SDS011;10479;53.524;9.846;2023-03-01T00:44:48;12.38;;;4.70;;
20639;SDS011;10479;53.524;9.846;2023-03-01T00:47:14;14.05;;;4.68;;
20639;SDS011;10479;53.524;9.846;2023-03-01T00:49:39;12.98;;;5.65;;
20639;SDS011;10479;53.524;9.846;2023-03-01T00:52:05;11.40;;;5.18;;
20639;SDS011;10479;53.524;9.846;2023-03-01T00:54:30;12.43;;;5.05;;
20639;SDS011;10479;53.524;9.846;2023-03-01T00:56:56;9.95;;;4.43;;
20639;SDS011;10479;53.524;9.846;2023-03-01T00:59:21;10.43;;;4.10;;
20639;SDS011;10479;53.524;9.846;2023-03-01T01:01:47;10.77;;;4.28;;
20639;SDS011;10479;53.524;9.846;2023-03-01T01:04:12;8.63;;;4.38;;
20639;SDS011;10479;53.524;9.846;2023-03-01T01:06:39;13.00;;;4.40;;
20639;SDS011;10479;53.524;9.846;2023-03-01T01:09:10;12.25;;;5.07;;
20639;SDS011;10479;53.524;9.846;2023-03-01T01:11:42;10.63;;;4.67;;
20639;SDS011;10479;53.524;9.846;2023-03-01T01:14:08;14.15;;;6.25;;
20639;SDS011;10479;53.524;9.846;2023-03-01T01:16:34;12.20;;;4.75;;
20639;SDS011;10479;53.524;9.846;2023-03-01T01:18:59;11.48;;;5.10;;
20639;SDS011;10479;53.524;9.846;2023-03-01T01:21:25;10.98;;;4.80;;
20639;SDS011;10479;53.524;9.846;2023-03-01T01:23:51;9.98;;;4.65;;
20639;SDS011;10479;53.524;9.846;2023-03-01T01:26:18;10.73;;;5.13;;
20639;SDS011;10479;53.524;9.846;2023-03-01T01:28:50;11.65;;;5.00;;
20639;SDS011;10479;53.524;9.846;2023-03-01T01:31:16;12.80;;;5.07;;
20639;SDS011;10479;53.524;9.846;2023-03-01T01:33:43;12.70;;;5.60;;
20639;SDS011;10479;53.524;9.846;2023-03-01T01:36:08;14.63;;;4.90;;
20639;SDS011;10479;53.524;9.846;2023-03-01T01:38:34;12.27;;;5.28;;
20639;SDS011;10479;53.524;9.846;2023-03-01T01:41:00;11.48;;;4.95;;
20639;SDS011;10479;53.524;9.846;2023-03-01T01:43:27;12.38;;;4.90;;
20639;SDS011;10479;53.524;9.846;2023-03-01T01:45:59;12.13;;;5.38;;
20639;SDS011;10479;53.524;9.846;2023-03-01T01:48:46;11.98;;;5.07;;
20639;SDS011;10479;53.524;9.846;2023-03-01T01:51:18;13.15;;;5.63;;
20639;SDS011;10479;53.524;9.846;2023-03-01T01:53:46;13.50;;;5.25;;
20639;SDS011;10479;53.524;9.846;2023-03-01T01:56:14;11.85;;;4.78;;
20639;SDS011;10479;53.524;9.846;2023-03-01T01:58:40;14.02;;;5.30;;
20639;SDS011;10479;53.524;9.846;2023-03-01T02:01:06;11.00;;;5.18;;
20639;SDS011;10479;53.524;9.846;2023-03-01T02:03:32;9.38;;;4.72;;
20639;SDS011;10479;53.524;9.846;2023-03-01T02:08:43;11.77;;;4.88;;
20639;SDS011;10479;53.524;9.846;2023-03-01T02:11:09;14.73;;;5.15;;
20639;SDS011;10479;53.524;9.846;2023-03-01T02:13:35;15.30;;;4.90;;
20639;SDS011;10479;53.524;9.846;2023-03-01T02:16:05;13.85;;;5.60;;
20639;SDS011;10479;53.524;9.846;2023-03-01T02:18:33;11.00;;;4.10;;
20639;SDS011;10479;53.524;9.846;2023-03-01T02:22:02;10.40;;;4.90;;
20639;SDS011;10479;53.524;9.846;2023-03-01T02:24:08;10.95;;;4.78;;
20639;SDS011;10479;53.524;9.846;2023-03-01T02:26:42;9.25;;;4.53;;
20639;SDS011;10479;53.524;9.846;2023-03-01T02:29:10;9.88;;;4.88;;
20639;SDS011;10479;53.524;9.846;2023-03-01T02:31:36;15.35;;;4.75;;
20639;SDS011;10479;53.524;9.846;2023-03-01T02:34:14;12.73;;;4.65;;
20639;SDS011;10479;53.524;9.846;2023-03-01T02:36:45;9.20;;;4.20;;
20639;SDS011;10479;53.524;9.846;2023-03-01T02:39:26;11.95;;;4.68;;
20639;SDS011;10479;53.524;9.846;2023-03-01T02:42:07;10.02;;;4.70;;
20639;SDS011;10479;53.524;9.846;2023-03-01T02:44:36;14.15;;;5.40;;
20639;SDS011;10479;53.524;9.846;2023-03-01T02:47:02;13.27;;;5.22;;
20639;SDS011;10479;53.524;9.846;2023-03-01T02:49:32;9.50;;;3.85;;
20639;SDS011;10479;53.524;9.846;2023-03-01T02:54:48;9.52;;;4.57;;
20639;SDS011;10479;53.524;9.846;2023-03-01T02:57:18;9.80;;;3.78;;
20639;SDS011;10479;53.524;9.846;2023-03-01T02:59:44;9.73;;;3.83;;
20639;SDS011;10479;53.524;9.846;2023-03-01T03:02:23;7.75;;;4.25;;
20639;SDS011;10479;53.524;9.846;2023-03-01T03:05:10;9.60;;;4.18;;
20639;SDS011;10479;53.524;9.846;2023-03-01T03:07:49;8.82;;;4.32;;
20639;SDS011;10479;53.524;9.846;2023-03-01T03:10:16;7.13;;;3.30;;
20639;SDS011;10479;53.524;9.846;2023-03-01T03:12:47;9.98;;;3.90;;
20639;SDS011;10479;53.524;9.846;2023-03-01T03:15:16;8.50;;;4.23;;
20639;SDS011;10479;53.524;9.846;2023-03-01T03:17:42;8.98;;;3.83;;
20639;SDS011;10479;53.524;9.846;2023-03-01T03:20:09;11.73;;;4.28;;
20639;SDS011;10479;53.524;9.846;2023-03-01T03:22:39;9.15;;;3.90;;
20639;SDS011;10479;53.524;9.846;2023-03-01T03:25:05;9.20;;;4.07;;
20639;SDS011;10479;53.524;9.846;2023-03-01T03:27:36;8.77;;;4.22;;
20639;SDS011;10479;53.524;9.846;2023-03-01T03:30:03;10.60;;;4.30;;
20639;SDS011;10479;53.524;9.846;2023-03-01T03:32:34;10.88;;;4.10;;
20639;SDS011;10479;53.524;9.846;2023-03-01T03:35:06;10.90;;;4.03;;
20639;SDS011;10479;53.524;9.846;2023-03-01T03:37:37;10.73;;;3.80;;
20639;SDS011;10479;53.524;9.846;2023-03-01T03:40:21;8.82;;;3.53;;
20639;SDS011;10479;53.524;9.846;2023-03-01T03:42:47;7.93;;;3.60;;
20639;SDS011;10479;53.524;9.846;2023-03-01T03:45:13;10.80;;;3.80;;
20639;SDS011;10479;53.524;9.846;2023-03-01T03:47:39;8.30;;;4.10;;
20639;SDS011;10479;53.524;9.846;2023-03-01T03:50:04;9.95;;;4.10;;
20639;SDS011;10479;53.524;9.846;2023-03-01T03:52:30;7.65;;;3.22;;
20639;SDS011;10479;53.524;9.846;2023-03-01T03:54:55;10.45;;;4.13;;
20639;SDS011;10479;53.524;9.846;2023-03-01T03:57:21;9.45;;;3.42;;
20639;SDS011;10479;53.524;9.846;2023-03-01T03:59:46;6.75;;;2.85;;
20639;SDS011;10479;53.524;9.846;2023-03-01T04:02:12;7.85;;;3.25;;
20639;SDS011;10479;53.524;9.846;2023-03-01T04:04:37;8.32;;;3.83;;
20639;SDS011;10479;53.524;9.846;2023-03-01T04:07:02;12.15;;;3.38;;
20639;SDS011;10479;53.524;9.846;2023-03-01T04:09:28;8.63;;;3.80;;
20639;SDS011;10479;53.524;9.846;2023-03-01T04:11:55;7.97;;;3.38;;
20639;SDS011;10479;53.524;9.846;2023-03-01T04:14:20;8.23;;;3.47;;
20639;SDS011;10479;53.524;9.846;2023-03-01T04:16:46;6.70;;;3.35;;
20639;SDS011;10479;53.524;9.846;2023-03-01T04:19:12;7.45;;;2.90;;
20639;SDS011;10479;53.524;9.846;2023-03-01T04:21:37;7.45;;;3.10;;
20639;SDS011;10479;53.524;9.846;2023-03-01T04:24:03;8.75;;;2.95;;
20639;SDS011;10479;53.524;9.846;2023-03-01T04:26:29;7.40;;;2.90;;
20639;SDS011;10479;53.524;9.846;2023-03-01T04:28:54;7.80;;;3.03;;
20639;SDS011;10479;53.524;9.846;2023-03-01T04:31:20;8.15;;;3.00;;
20639;SDS011;10479;53.524;9.846;2023-03-01T04:33:50;9.57;;;2.97;;
20639;SDS011;10479;53.524;9.846;2023-03-01T04:36:20;8.95;;;2.85;;
20639;SDS011;10479;53.524;9.846;2023-03-01T04:38:47;10.23;;;2.95;;
20639;SDS011;10479;53.524;9.846;2023-03-01T04:41:14;7.97;;;2.92;;
20639;SDS011;10479;53.524;9.846;2023-03-01T04:43:44;6.82;;;2.97;;
20639;SDS011;10479;53.524;9.846;2023-03-01T04:46:17;9.25;;;3.10;;
20639;SDS011;10479;53.524;9.846;2023-03-01T04:48:44;7.60;;;2.92;;
20639;SDS011;10479;53.524;9.846;2023-03-01T04:51:10;6.13;;;2.55;;
20639;SDS011;10479;53.524;9.846;2023-03-01T04:53:38;6.97;;;2.50;;
20639;SDS011;10479;53.524;9.846;2023-03-01T04:56:04;7.70;;;3.03;;
20639;SDS011;10479;53.524;9.846;2023-03-01T04:58:30;8.30;;;2.80;;
20639;SDS011;10479;53.524;9.846;2023-03-01T05:00:56;5.55;;;2.70;;
20639;SDS011;10479;53.524;9.846;2023-03-01T05:03:21;6.72;;;2.83;;
20639;SDS011;10479;53.524;9.846;2023-03-01T05:05:48;9.13;;;2.70;;
20639;SDS011;10479;53.524;9.846;2023-03-01T05:08:15;7.32;;;3.08;;
20639;SDS011;10479;53.524;9.846;2023-03-01T05:10:48;7.47;;;3.17;;
20639;SDS011;10479;53.524;9.846;2023-03-01T05:13:15;6.00;;;3.05;;
20639;SDS011;10479;53.524;9.846;2023-03-01T05:15:49;8.70;;;3.50;;
20639;SDS011;10479;53.524;9.846;2023-03-01T05:18:19;7.50;;;3.42;;
20639;SDS011;10479;53.524;9.846;2023-03-01T05:20:44;8.48;;;3.47;;
20639;SDS011;10479;53.524;9.846;2023-03-01T05:23:10;7.63;;;3.38;;
20639;SDS011;10479;53.524;9.846;2023-03-01T05:25:35;9.65;;;4.03;;
20639;SDS011;10479;53.524;9.846;2023-03-01T05:28:05;8.85;;;3.67;;
20639;SDS011;10479;53.524;9.846;2023-03-01T05:30:32;8.40;;;3.72;;
20639;SDS011;10479;53.524;9.846;2023-03-01T05:32:59;8.80;;;3.58;;
20639;SDS011;10479;53.524;9.846;2023-03-01T05:35:25;8.82;;;3.65;;
20639;SDS011;10479;53.524;9.846;2023-03-01T05:37:51;8.32;;;3.60;;
20639;SDS011;10479;53.524;9.846;2023-03-01T05:40:21;8.95;;;4.00;;
20639;SDS011;10479;53.524;9.846;2023-03-01T05:42:48;12.82;;;4.13;;
20639;SDS011;10479;53.524;9.846;2023-03-01T05:45:15;9.02;;;3.83;;
20639;SDS011;10479;53.524;9.846;2023-03-01T05:47:42;9.85;;;4.20;;
20639;SDS011;10479;53.524;9.846;2023-03-01T05:50:12;9.23;;;3.97;;
20639;SDS011;10479;53.524;9.846;2023-03-01T05:52:39;9.93;;;4.18;;
20639;SDS011;10479;53.524;9.846;2023-03-01T05:55:05;8.23;;;3.92;;
20639;SDS011;10479;53.524;9.846;2023-03-01T05:57:31;10.43;;;4.15;;
20639;SDS011;10479;53.524;9.846;2023-03-01T05:59:56;9.35;;;4.20;;
20639;SDS011;10479;53.524;9.846;2023-03-01T06:02:21;8.77;;;3.88;;
20639;SDS011;10479;53.524;9.846;2023-03-01T06:04:47;12.30;;;5.25;;
20639;SDS011;10479;53.524;9.846;2023-03-01T06:07:12;8.00;;;3.95;;
20639;SDS011;10479;53.524;9.846;2023-03-01T06:09:38;13.45;;;4.20;;
20639;SDS011;10479;53.524;9.846;2023-03-01T06:12:03;11.15;;;4.25;;
20639;SDS011;10479;53.524;9.846;2023-03-01T06:14:30;9.13;;;4.15;;
20639;SDS011;10479;53.524;9.846;2023-03-01T06:16:56;11.25;;;4.38;;
20639;SDS011;10479;53.524;9.846;2023-03-01T06:19:21;8.63;;;4.53;;
20639;SDS011;10479;53.524;9.846;2023-03-01T06:21:47;9.13;;;3.92;;
20639;SDS011;10479;53.524;9.846;2023-03-01T06:24:12;10.55;;;3.83;;
20639;SDS011;10479;53.524;9.846;2023-03-01T06:26:37;10.32;;;4.20;;
20639;SDS011;10479;53.524;9.846;2023-03-01T06:29:03;8.55;;;3.90;;
20639;SDS011;10479;53.524;9.846;2023-03-01T06:31:28;9.10;;;3.80;;
20639;SDS011;10479;53.524;9.846;2023-03-01T06:33:54;10.77;;;4.10;;
20639;SDS011;10479;53.524;9.846;2023-03-01T06:36:19;8.63;;;3.22;;
20639;SDS011;10479;53.524;9.846;2023-03-01T06:38:46;13.25;;;3.90;;
20639;SDS011;10479;53.524;9.846;2023-03-01T06:41:11;7.78;;;4.30;;
20639;SDS011;10479;53.524;9.846;2023-03-01T06:43:37;8.60;;;4.50;;
20639;SDS011;10479;53.524;9.846;2023-03-01T06:46:05;13.55;;;3.85;;
20639;SDS011;10479;53.524;9.846;2023-03-01T06:48:32;11.68;;;4.82;;
20639;SDS011;10479;53.524;9.846;2023-03-01T06:50:59;11.00;;;5.13;;
20639;SDS011;10479;53.524;9.846;2023-03-01T06:53:26;9.38;;;4.75;;
20639;SDS011;10479;53.524;9.846;2023-03-01T06:55:55;13.10;;;4.82;;
20639;SDS011;10479;53.524;9.846;2023-03-01T06:58:27;10.70;;;4.75;;
20639;SDS011;10479;53.524;9.846;2023-03-01T07:00:52;12.05;;;4.78;;
20639;SDS011;10479;53.524;9.846;2023-03-01T07:03:18;14.23;;;4.53;;
20639;SDS011;10479;53.524;9.846;2023-03-01T07:05:43;8.93;;;3.90;;
20639;SDS011;10479;53.524;9.846;2023-03-01T07:08:09;11.30;;;4.22;;
20639;SDS011;10479;53.524;9.846;2023-03-01T07:10:35;10.90;;;4.43;;
20639;SDS011;10479;53.524;9.846;2023-03-01T07:13:00;9.10;;;4.20;;
20639;SDS011;10479;53.524;9.846;2023-03-01T07:15:28;11.32;;;4.78;;
20639;SDS011;10479;53.524;9.846;2023-03-01T07:17:53;8.80;;;4.15;;
20639;SDS011;10479;53.524;9.846;2023-03-01T07:20:19;10.98;;;4.57;;
20639;SDS011;10479;53.524;9.846;2023-03-01T07:22:50;10.15;;;4.38;;
20639;SDS011;10479;53.524;9.846;2023-03-01T07:25:16;9.02;;;4.22;;
20639;SDS011;10479;53.524;9.846;2023-03-01T07:27:42;10.20;;;4.85;;
20639;SDS011;10479;53.524;9.846;2023-03-01T07:30:07;7.55;;;4.30;;
20639;SDS011;10479;53.524;9.846;2023-03-01T07:32:33;12.10;;;5.15;;
20639;SDS011;10479;53.524;9.846;2023-03-01T07:34:59;12.93;;;4.47;;
20639;SDS011;10479;53.524;9.846;2023-03-01T07:37:24;11.93;;;4.45;;
20639;SDS011;10479;53.524;9.846;2023-03-01T07:39:49;11.48;;;4.72;;
20639;SDS011;10479;53.524;9.846;2023-03-01T07:42:15;11.75;;;4.55;;
20639;SDS011;10479;53.524;9.846;2023-03-01T07:44:40;14.20;;;5.22;;
20639;SDS011;10479;53.524;9.846;2023-03-01T07:47:06;10.65;;;4.68;;
20639;SDS011;10479;53.524;9.846;2023-03-01T07:49:31;11.05;;;4.85;;
20639;SDS011;10479;53.524;9.846;2023-03-01T07:51:57;14.10;;;5.63;;
20639;SDS011;10479;53.524;9.846;2023-03-01T07:54:22;11.07;;;5.07;;
20639;SDS011;10479;53.524;9.846;2023-03-01T07:56:48;12.63;;;5.13;;
20639;SDS011;10479;53.524;9.846;2023-03-01T07:59:13;13.45;;;5.32;;
20639;SDS011;10479;53.524;9.846;2023-03-01T08:01:39;11.65;;;4.75;;
20639;SDS011;10479;53.524;9.846;2023-03-01T08:04:04;12.02;;;4.93;;
20639;SDS011;10479;53.524;9.846;2023-03-01T08:06:33;11.00;;;5.65;;
20639;SDS011;10479;53.524;9.846;2023-03-01T08:08:59;17.02;;;6.10;;
20639;SDS011;10479;53.524;9.846;2023-03-01T08:11:24;14.93;;;6.07;;
20639;SDS011;10479;53.524;9.846;2023-03-01T08:13:50;15.27;;;6.18;;
20639;SDS011;10479;53.524;9.846;2023-03-01T08:16:15;13.45;;;5.85;;
20639;SDS011;10479;53.524;9.846;2023-03-01T08:18:41;10.57;;;5.03;;
20639;SDS011;10479;53.524;9.846;2023-03-01T08:21:10;11.18;;;5.10;;
20639;SDS011;10479;53.524;9.846;2023-03-01T08:23:36;14.80;;;5.90;;
20639;SDS011;10479;53.524;9.846;2023-03-01T08:26:06;16.83;;;5.78;;
20639;SDS011;10479;53.524;9.846;2023-03-01T08:28:33;13.82;;;6.13;;
20639;SDS011;10479;53.524;9.846;2023-03-01T08:30:58;13.50;;;5.80;;
20639;SDS011;10479;53.524;9.846;2023-03-01T08:33:24;11.02;;;5.60;;
20639;SDS011;10479;53.524;9.846;2023-03-01T08:35:49;12.85;;;6.57;;
20639;SDS011;10479;53.524;9.846;2023-03-01T08:38:15;13.57;;;5.95;;
20639;SDS011;10479;53.524;9.846;2023-03-01T08:40:40;15.07;;;6.07;;
20639;SDS011;10479;53.524;9.846;2023-03-01T08:43:05;11.82;;;6.15;;
20639;SDS011;10479;53.524;9.846;2023-03-01T08:45:31;11.68;;;6.30;;
20639;SDS011;10479;53.524;9.846;2023-03-01T08:47:56;15.60;;;6.57;;
20639;SDS011;10479;53.524;9.846;2023-03-01T08:50:22;11.98;;;6.13;;
20639;SDS011;10479;53.524;9.846;2023-03-01T08:52:49;11.73;;;6.47;;
20639;SDS011;10479;53.524;9.846;2023-03-01T08:55:15;16.25;;;6.70;;
20639;SDS011;10479;53.524;9.846;2023-03-01T08:57:42;14.20;;;6.40;;
20639;SDS011;10479;53.524;9.846;2023-03-01T09:00:08;13.07;;;6.90;;
20639;SDS011;10479;53.524;9.846;2023-03-01T09:02:34;14.77;;;7.32;;
20639;SDS011;10479;53.524;9.846;2023-03-01T09:05:00;20.80;;;7.55;;
20639;SDS011;10479;53.524;9.846;2023-03-01T09:07:26;15.60;;;7.25;;
20639;SDS011;10479;53.524;9.846;2023-03-01T09:09:53;14.40;;;7.15;;
20639;SDS011;10479;53.524;9.846;2023-03-01T09:12:19;14.15;;;7.15;;
20639;SDS011;10479;53.524;9.846;2023-03-01T09:14:44;13.85;;;6.97;;
20639;SDS011;10479;53.524;9.846;2023-03-01T09:17:10;14.30;;;7.50;;
20639;SDS011;10479;53.524;9.846;2023-03-01T09:19:35;17.05;;;8.18;;
20639;SDS011;10479;53.524;9.846;2023-03-01T09:22:02;15.57;;;7.88;;
20639;SDS011;10479;53.524;9.846;2023-03-01T09:24:28;14.63;;;8.18;;
20639;SDS011;10479;53.524;9.846;2023-03-01T09:26:54;15.75;;;8.52;;
20639;SDS011;10479;53.524;9.846;2023-03-01T09:29:21;18.80;;;9.20;;
20639;SDS011;10479;53.524;9.846;2023-03-01T09:31:47;22.33;;;10.95;;
20639;SDS011;10479;53.524;9.846;2023-03-01T09:34:12;21.38;;;11.32;;
20639;SDS011;10479;53.524;9.846;2023-03-01T09:36:41;24.02;;;11.73;;
20639;SDS011;10479;53.524;9.846;2023-03-01T09:39:06;22.38;;;10.95;;
20639;SDS011;10479;53.524;9.846;2023-03-01T09:41:42;21.52;;;12.25;;
20639;SDS011;10479;53.524;9.846;2023-03-01T09:46:37;28.17;;;12.90;;
20639;SDS011;10479;53.524;9.846;2023-03-01T09:49:24;23.40;;;12.60;;
20639;SDS011;10479;53.524;9.846;2023-03-01T09:54:19;25.73;;;12.32;;
20639;SDS011;10479;53.524;9.846;2023-03-01T09:57:10;26.33;;;13.10;;
20639;SDS011;10479;53.524;9.846;2023-03-01T10:05:21;25.70;;;14.18;;
20639;SDS011;10479;53.524;9.846;2023-03-01T10:08:26;25.02;;;13.40;;
20639;SDS011;10479;53.524;9.846;2023-03-01T10:10:56;24.63;;;12.25;;
20639;SDS011;10479;53.524;9.846;2023-03-01T10:13:24;24.45;;;13.55;;
20639;SDS011;10479;53.524;9.846;2023-03-01T10:16:13;20.75;;;11.52;;
20639;SDS011;10479;53.524;9.846;2023-03-01T10:18:41;25.90;;;12.30;;
20639;SDS011;10479;53.524;9.846;2023-03-01T10:21:15;22.90;;;12.02;;
20639;SDS011;10479;53.524;9.846;2023-03-01T10:23:43;24.65;;;12.38;;
20639;SDS011;10479;53.524;9.846;2023-03-01T10:26:13;22.13;;;11.43;;
20639;SDS011;10479;53.524;9.846;2023-03-01T10:31:11;22.13;;;10.43;;
20639;SDS011;10479;53.524;9.846;2023-03-01T10:33:38;22.60;;;10.60;;
20639;SDS011;10479;53.524;9.846;2023-03-01T10:36:07;18.52;;;9.77;;
20639;SDS011;10479;53.524;9.846;2023-03-01T10:41:19;18.95;;;9.15;;
20639;SDS011;10479;53.524;9.846;2023-03-01T10:43:50;16.25;;;8.55;;
20639;SDS011;10479;53.524;9.846;2023-03-01T10:46:22;15.05;;;8.32;;
20639;SDS011;10479;53.524;9.846;2023-03-01T10:51:46;16.88;;;8.13;;
20639;SDS011;10479;53.524;9.846;2023-03-01T10:54:29;15.77;;;8.50;;
20639;SDS011;10479;53.524;9.846;2023-03-01T10:56:57;15.38;;;8.18;;
20639;SDS011;10479;53.524;9.846;2023-03-01T10:59:29;14.20;;;7.93;;
20639;SDS011;10479;53.524;9.846;2023-03-01T11:05:01;19.17;;;7.82;;
20639;SDS011;10479;53.524;9.846;2023-03-01T11:10:16;16.33;;;7.10;;
20639;SDS011;10479;53.524;9.846;2023-03-01T11:12:43;14.18;;;6.57;;
20639;SDS011;10479;53.524;9.846;2023-03-01T11:15:15;14.50;;;6.85;;
20639;SDS011;10479;53.524;9.846;2023-03-01T11:17:45;13.48;;;6.20;;
20639;SDS011;10479;53.524;9.846;2023-03-01T11:22:42;14.70;;;6.45;;
20639;SDS011;10479;53.524;9.846;2023-03-01T11:25:11;15.23;;;6.45;;
20639;SDS011;10479;53.524;9.846;2023-03-01T11:27:40;17.17;;;7.85;;
20639;SDS011;10479;53.524;9.846;2023-03-01T11:35:56;13.43;;;6.47;;
20639;SDS011;10479;53.524;9.846;2023-03-01T11:38:26;12.02;;;6.65;;
20639;SDS011;10479;53.524;9.846;2023-03-01T11:40:55;14.30;;;6.43;;
20639;SDS011;10479;53.524;9.846;2023-03-01T11:54:04;13.18;;;6.20;;
20639;SDS011;10479;53.524;9.846;2023-03-01T11:56:35;11.80;;;6.43;;
20639;SDS011;10479;53.524;9.846;2023-03-01T12:07:24;11.27;;;5.90;;
20639;SDS011;10479;53.524;9.846;2023-03-01T12:15:39;12.82;;;6.20;;
20639;SDS011;10479;53.524;9.846;2023-03-01T12:34:15;17.55;;;7.60;;
20639;SDS011;10479;53.524;9.846;2023-03-01T12:39:55;15.73;;;6.67;;
20639;SDS011;10479;53.524;9.846;2023-03-01T12:47:35;17.50;;;7.68;;
20639;SDS011;10479;53.524;9.846;2023-03-01T12:52:57;18.95;;;7.75;;
20639;SDS011;10479;53.524;9.846;2023-03-01T12:55:28;18.23;;;9.40;;
20639;SDS011;10479;53.524;9.846;2023-03-01T12:58:24;17.52;;;8.35;;
20639;SDS011;10479;53.524;9.846;2023-03-01T13:09:27;22.02;;;9.25;;
20639;SDS011;10479;53.524;9.846;2023-03-01T13:16:49;17.85;;;8.48;;
20639;SDS011;10479;53.524;9.846;2023-03-01T13:19:19;17.92;;;8.27;;
20639;SDS011;10479;53.524;9.846;2023-03-01T13:21:46;19.38;;;8.82;;
20639;SDS011;10479;53.524;9.846;2023-03-01T13:29:53;16.77;;;7.65;;
20639;SDS011;10479;53.524;9.846;2023-03-01T13:32:28;16.77;;;8.63;;
20639;SDS011;10479;53.524;9.846;2023-03-01T13:35:41;17.15;;;8.88;;
20639;SDS011;10479;53.524;9.846;2023-03-01T13:41:11;19.60;;;10.43;;
20639;SDS011;10479;53.524;9.846;2023-03-01T13:43:38;24.33;;;10.70;;
20639;SDS011;10479;53.524;9.846;2023-03-01T13:46:24;19.92;;;10.23;;
20639;SDS011;10479;53.524;9.846;2023-03-01T13:48:51;17.08;;;8.27;;
20639;SDS011;10479;53.524;9.846;2023-03-01T13:51:20;14.85;;;7.80;;
20639;SDS011;10479;53.524;9.846;2023-03-01T13:53:50;18.30;;;7.57;;
20639;SDS011;10479;53.524;9.846;2023-03-01T13:59:02;21.38;;;8.05;;
20639;SDS011;10479;53.524;9.846;2023-03-01T14:01:32;16.45;;;8.57;;
20639;SDS011;10479;53.524;9.846;2023-03-01T14:03:59;18.65;;;7.95;;
20639;SDS011;10479;53.524;9.846;2023-03-01T14:06:28;18.70;;;9.18;;
20639;SDS011;10479;53.524;9.846;2023-03-01T14:11:51;17.98;;;7.60;;
20639;SDS011;10479;53.524;9.846;2023-03-01T14:14:45;13.52;;;7.20;;
20639;SDS011;10479;53.524;9.846;2023-03-01T14:20:02;12.93;;;6.57;;
20639;SDS011;10479;53.524;9.846;2023-03-01T14:22:34;15.25;;;7.68;;
20639;SDS011;10479;53.524;9.846;2023-03-01T14:25:02;15.02;;;6.55;;
20639;SDS011;10479;53.524;9.846;2023-03-01T14:27:50;15.35;;;6.25;;
20639;SDS011;10479;53.524;9.846;2023-03-01T14:30:36;13.25;;;5.72;;
20639;SDS011;10479;53.524;9.846;2023-03-01T14:33:04;13.13;;;5.35;;
20639;SDS011;10479;53.524;9.846;2023-03-01T14:35:32;13.32;;;6.22;;
20639;SDS011;10479;53.524;9.846;2023-03-01T14:38:00;16.25;;;5.88;;
20639;SDS011;10479;53.524;9.846;2023-03-01T14:43:00;13.23;;;5.30;;
20639;SDS011;10479;53.524;9.846;2023-03-01T14:45:27;12.40;;;4.72;;
20639;SDS011;10479;53.524;9.846;2023-03-01T14:47:54;11.07;;;5.22;;
20639;SDS011;10479;53.524;9.846;2023-03-01T14:50:28;12.52;;;4.30;;
20639;SDS011;10479;53.524;9.846;2023-03-01T14:52:56;12.30;;;4.43;;
20639;SDS011;10479;53.524;9.846;2023-03-01T14:55:33;9.38;;;4.32;;
20639;SDS011;10479;53.524;9.846;2023-03-01T14:57:59;8.27;;;3.95;;
20639;SDS011;10479;53.524;9.846;2023-03-01T15:00:31;8.10;;;3.90;;
20639;SDS011;10479;53.524;9.846;2023-03-01T15:03:00;12.57;;;4.80;;
20639;SDS011;10479;53.524;9.846;2023-03-01T15:05:34;9.95;;;4.95;;
20639;SDS011;10479;53.524;9.846;2023-03-01T15:08:00;9.90;;;3.72;;
20639;SDS011;10479;53.524;9.846;2023-03-01T15:10:29;7.65;;;3.63;;
20639;SDS011;10479;53.524;9.846;2023-03-01T15:13:09;9.95;;;4.10;;
20639;SDS011;10479;53.524;9.846;2023-03-01T15:15:42;11.30;;;5.03;;
20639;SDS011;10479;53.524;9.846;2023-03-01T15:20:42;15.43;;;6.60;;
20639;SDS011;10479;53.524;9.846;2023-03-01T15:23:19;13.07;;;5.43;;
20639;SDS011;10479;53.524;9.846;2023-03-01T15:25:47;12.13;;;5.55;;
20639;SDS011;10479;53.524;9.846;2023-03-01T15:28:21;12.00;;;6.00;;
20639;SDS011;10479;53.524;9.846;2023-03-01T15:30:55;14.60;;;5.65;;
20639;SDS011;10479;53.524;9.846;2023-03-01T15:33:42;9.68;;;4.50;;
20639;SDS011;10479;53.524;9.846;2023-03-01T15:38:57;10.77;;;4.85;;
20639;SDS011;10479;53.524;9.846;2023-03-01T15:41:31;14.23;;;5.15;;
20639;SDS011;10479;53.524;9.846;2023-03-01T15:44:25;11.75;;;5.38;;
20639;SDS011;10479;53.524;9.846;2023-03-01T15:46:52;12.82;;;5.97;;
20639;SDS011;10479;53.524;9.846;2023-03-01T15:49:25;15.63;;;6.70;;
20639;SDS011;10479;53.524;9.846;2023-03-01T15:51:53;12.38;;;6.28;;
20639;SDS011;10479;53.524;9.846;2023-03-01T15:54:21;14.77;;;6.55;;
20639;SDS011;10479;53.524;9.846;2023-03-01T15:56:47;20.92;;;7.13;;
20639;SDS011;10479;53.524;9.846;2023-03-01T15:59:13;16.30;;;7.03;;
20639;SDS011;10479;53.524;9.846;2023-03-01T16:01:42;17.10;;;7.50;;
20639;SDS011;10479;53.524;9.846;2023-03-01T16:04:11;17.15;;;6.70;;
20639;SDS011;10479;53.524;9.846;2023-03-01T16:06:45;16.08;;;7.65;;
20639;SDS011;10479;53.524;9.846;2023-03-01T16:09:19;23.98;;;8.90;;
20639;SDS011;10479;53.524;9.846;2023-03-01T16:11:46;18.80;;;8.63;;
20639;SDS011;10479;53.524;9.846;2023-03-01T16:14:11;19.83;;;8.93;;
20639;SDS011;10479;53.524;9.846;2023-03-01T16:16:37;18.95;;;8.23;;
20639;SDS011;10479;53.524;9.846;2023-03-01T16:19:02;21.85;;;9.10;;
20639;SDS011;10479;53.524;9.846;2023-03-01T16:21:28;21.77;;;10.30;;
20639;SDS011;10479;53.524;9.846;2023-03-01T16:23:53;27.77;;;13.57;;
20639;SDS011;10479;53.524;9.846;2023-03-01T16:26:19;28.92;;;11.43;;
20639;SDS011;10479;53.524;9.846;2023-03-01T16:28:45;29.95;;;12.13;;
20639;SDS011;10479;53.524;9.846;2023-03-01T16:31:11;29.20;;;11.50;;
20639;SDS011;10479;53.524;9.846;2023-03-01T16:33:37;27.85;;;12.07;;
20639;SDS011;10479;53.524;9.846;2023-03-01T16:36:09;24.35;;;10.63;;
20639;SDS011;10479;53.524;9.846;2023-03-01T16:38:36;22.75;;;9.77;;
20639;SDS011;10479;53.524;9.846;2023-03-01T16:41:01;25.90;;;11.35;;
20639;SDS011;10479;53.524;9.846;2023-03-01T16:43:27;26.55;;;11.23;;
20639;SDS011;10479;53.524;9.846;2023-03-01T16:45:52;26.27;;;11.80;;
20639;SDS011;10479;53.524;9.846;2023-03-01T16:48:18;23.27;;;11.35;;
20639;SDS011;10479;53.524;9.846;2023-03-01T16:50:43;26.45;;;12.07;;
20639;SDS011;10479;53.524;9.846;2023-03-01T16:53:09;29.25;;;12.60;;